Time;durP1;ratioP1;P1;durP2;ratioP2;P2;SDS_P1;SDS_P2;PMS_P1;PMS_P2;Temp;Humidity;BMP_temperature;BMP_pressure;BME280_temperature;BME280_humidity;BME280_pressure;Samples;Min_cycle;Max_cycle;Signal;HPM_P1;HPM_P2
2022/07/05 00:00:42;;;;;;;9.68;2.47;;;;;;;27.74;43.43;98554.09;4488232;32;20134;-83
2022/07/05 00:03:07;;;;;;;8.30;2.50;;;;;;;27.84;43.50;98550.00;4488214;32;20420;-83
2022/07/05 00:05:33;;;;;;;6.53;2.17;;;;;;;27.67;43.95;98561.37;4488140;32;20092;-83
2022/07/05 00:07:58;;;;;;;8.98;2.42;;;;;;;27.63;44.22;98559.06;4488052;32;20150;-83
2022/07/05 00:10:24;;;;;;;5.72;2.35;;;;;;;27.22;45.59;98553.56;4488073;32;20136;-84
2022/07/05 00:12:49;;;;;;;8.70;2.45;;;;;;;27.38;45.23;98555.97;4473703;32;20092;-83
2022/07/05 00:15:14;;;;;;;12.13;2.80;;;;;;;27.32;45.48;98554.06;4488004;32;20085;-83
2022/07/05 00:17:40;;;;;;;5.87;2.40;;;;;;;26.93;46.45;98560.81;4488192;32;20111;-83
2022/07/05 00:20:06;;;;;;;8.55;2.75;;;;;;;26.99;46.27;98549.22;4487908;32;20089;-83
2022/07/05 00:22:31;;;;;;;9.50;2.40;;;;;;;26.89;46.60;98556.81;4473842;32;20463;-83
2022/07/05 00:24:57;;;;;;;7.32;2.40;;;;;;;26.89;46.55;98556.81;4487996;32;20118;-84
2022/07/05 00:27:22;;;;;;;7.70;2.15;;;;;;;26.99;46.16;98559.19;4488181;32;20115;-83
2022/07/05 00:29:48;;;;;;;7.28;2.30;;;;;;;26.84;46.55;98546.56;4487906;32;20093;-83
2022/07/05 00:32:13;;;;;;;8.07;2.65;;;;;;;26.72;46.73;98541.91;4473586;32;20089;-83
2022/07/05 00:34:38;;;;;;;6.60;2.25;;;;;;;26.61;46.88;98540.53;4487936;32;20121;-82
2022/07/05 00:37:04;;;;;;;7.78;2.12;;;;;;;26.77;46.48;98539.44;4487997;32;20069;-83
2022/07/05 00:39:29;;;;;;;5.32;2.10;;;;;;;26.70;46.67;98536.69;4487427;32;20117;-83
2022/07/05 00:41:55;;;;;;;5.78;2.22;;;;;;;26.82;46.22;98534.31;4487872;32;20146;-83
2022/07/05 00:44:32;;;;;;;4.35;1.90;;;;;;;27.03;45.49;98528.88;4487853;32;20432;-82
2022/07/05 00:46:58;;;;;;;6.30;2.20;;;;;;;26.97;45.57;98528.81;4473567;32;20109;-84
2022/07/05 00:49:23;;;;;;;5.82;2.42;;;;;;;26.90;45.50;98531.44;4487784;32;20428;-84
2022/07/05 00:51:48;;;;;;;6.75;1.98;;;;;;;26.61;46.13;98529.75;4487676;32;20120;-83
2022/07/05 00:54:14;;;;;;;5.47;2.10;;;;;;;26.80;45.75;98536.38;4487797;32;20084;-83
2022/07/05 00:56:39;;;;;;;5.25;2.25;;;;;;;26.89;45.04;98529.81;4487913;32;20126;-83
2022/07/05 00:59:05;;;;;;;6.40;2.15;;;;;;;26.99;44.50;98540.28;4487723;32;20428;-83
2022/07/05 01:01:30;;;;;;;5.20;2.00;;;;;;;27.04;44.06;98537.81;4487786;32;20473;-83
2022/07/05 01:03:56;;;;;;;5.62;2.00;;;;;;;27.03;43.58;98534.28;4487668;32;20088;-83
2022/07/05 01:06:21;;;;;;;5.45;1.90;;;;;;;27.29;42.68;98537.41;4487636;32;20122;-83
2022/07/05 01:08:47;;;;;;;6.62;2.20;;;;;;;27.04;42.91;98532.41;4473480;32;20396;-83
2022/07/05 01:11:13;;;;;;;5.32;1.98;;;;;;;26.90;43.15;98542.25;4487666;32;20124;-83
2022/07/05 01:13:39;;;;;;;4.28;1.80;;;;;;;27.16;42.45;98533.53;4487622;32;20088;-82
2022/07/05 01:16:04;;;;;;;5.03;2.00;;;;;;;27.09;42.55;98545.34;4487775;32;20119;-83
2022/07/05 01:18:33;;;;;;;6.40;1.95;;;;;;;27.13;42.38;98541.22;4473426;32;20348;-83
2022/07/05 01:21:01;;;;;;;5.97;2.42;;;;;;;26.88;43.08;98550.56;4487728;32;20088;-83
2022/07/05 01:23:27;;;;;;;6.72;2.00;;;;;;;26.95;42.96;98545.22;4460345;32;20084;-83
2022/07/05 01:25:54;;;;;;;5.47;1.90;;;;;;;27.07;42.86;98549.06;4487673;32;20165;-83
2022/07/05 01:28:20;;;;;;;6.07;2.28;;;;;;;26.94;43.08;98548.94;4473435;32;20123;-83
2022/07/05 01:30:46;;;;;;;6.87;1.98;;;;;;;26.84;43.19;98538.47;4487574;32;20072;-83
2022/07/05 01:33:12;;;;;;;4.75;2.00;;;;;;;26.71;43.29;98532.13;4473442;32;20114;-83
2022/07/05 01:35:37;;;;;;;6.32;1.80;;;;;;;26.81;42.86;98525.38;4487556;32;20084;-83
2022/07/05 01:38:03;;;;;;;5.35;1.98;;;;;;;26.87;42.54;98535.41;4473312;32;20096;-83
2022/07/05 01:40:29;;;;;;;4.62;1.87;;;;;;;26.91;42.48;98530.44;4487504;32;20076;-83
2022/07/05 01:42:54;;;;;;;4.03;2.03;;;;;;;27.00;42.06;98529.25;4487449;32;20464;-83
2022/07/05 01:48:11;;;;;;;5.37;2.20;;;;;;;27.07;41.44;98534.72;4487307;32;20123;-83
2022/07/05 01:50:40;;;;;;;5.80;1.90;;;;;;;27.22;41.01;98534.62;4486056;32;20080;-83
2022/07/05 01:53:09;;;;;;;7.10;2.10;;;;;;;27.30;40.49;98529.09;4472865;32;20092;-83
2022/07/05 01:55:34;;;;;;;5.30;1.90;;;;;;;27.00;40.88;98533.81;4472948;32;20482;-83
2022/07/05 01:58:00;;;;;;;5.37;1.80;;;;;;;27.21;40.29;98530.25;4487112;32;20111;-83
2022/07/05 02:00:25;;;;;;;4.47;1.85;;;;;;;27.15;40.39;98534.56;4487056;32;20092;-83
2022/07/05 02:02:51;;;;;;;5.70;1.73;;;;;;;27.18;40.19;98525.25;4487104;32;20092;-83
2022/07/05 02:05:16;;;;;;;5.28;1.70;;;;;;;27.39;39.75;98518.94;4487148;32;20107;-83
2022/07/05 02:07:49;;;;;;;4.90;1.83;;;;;;;27.49;39.47;98522.16;4487151;32;20088;-83
2022/07/05 02:10:14;;;;;;;6.65;2.10;;;;;;;27.43;39.59;98531.06;4486999;32;20139;-83
2022/07/05 02:12:40;;;;;;;4.93;1.87;;;;;;;27.56;39.38;98530.28;4487022;32;20106;-83
2022/07/05 02:15:06;;;;;;;5.43;1.87;;;;;;;27.71;39.06;98531.00;4487105;32;20119;-83
2022/07/05 02:17:31;;;;;;;4.55;1.75;;;;;;;27.75;38.88;98529.56;4487065;32;20092;-83
2022/07/05 02:19:57;;;;;;;5.37;1.90;;;;;;;27.71;39.02;98531.00;4486940;32;20103;-83
2022/07/05 02:22:23;;;;;;;5.37;1.73;;;;;;;27.46;39.51;98526.06;4486998;32;20429;-83
2022/07/05 02:24:49;;;;;;;6.78;1.83;;;;;;;27.72;39.07;98527.28;4486924;32;20151;-83
2022/07/05 02:27:14;;;;;;;4.62;2.00;;;;;;;27.81;38.91;98515.22;4486944;32;20382;-83
2022/07/05 02:29:39;;;;;;;4.65;1.92;;;;;;;27.92;38.82;98515.72;4486803;32;20383;-82
2022/07/05 02:32:05;;;;;;;4.53;1.80;;;;;;;27.77;39.16;98510.41;4486766;32;20115;-82
2022/07/05 02:34:31;;;;;;;3.97;1.80;;;;;;;27.74;39.28;98503.53;4486912;32;20124;-82
2022/07/05 02:36:56;;;;;;;5.65;1.90;;;;;;;27.63;39.48;98502.22;4486934;32;20371;-82
2022/07/05 02:39:21;;;;;;;7.10;2.25;;;;;;;27.76;39.39;98495.22;4486830;32;20080;-82
2022/07/05 02:41:47;;;;;;;5.10;1.80;;;;;;;27.82;39.32;98500.66;4486845;32;20106;-82
2022/07/05 02:44:12;;;;;;;7.90;2.00;;;;;;;27.98;39.03;98502.19;4486664;32;20104;-83
2022/07/05 02:46:38;;;;;;;3.60;1.80;;;;;;;27.91;39.29;98506.78;4486776;32;20088;-83
2022/07/05 02:49:04;;;;;;;5.40;1.87;;;;;;;27.73;39.72;98509.16;4486691;32;20107;-83
2022/07/05 02:51:29;;;;;;;4.25;1.90;;;;;;;27.88;39.50;98517.13;4486323;32;20416;-83
2022/07/05 02:53:55;;;;;;;6.93;2.10;;;;;;;27.93;39.37;98510.13;4486683;32;20360;-83
2022/07/05 02:56:20;;;;;;;4.87;1.80;;;;;;;27.94;39.46;98521.78;4486678;32;20073;-83
2022/07/05 02:58:46;;;;;;;6.82;2.03;;;;;;;27.97;39.42;98508.66;4472317;32;20215;-83
2022/07/05 03:01:11;;;;;;;4.82;2.00;;;;;;;27.91;39.59;98517.59;4486442;32;20088;-82
2022/07/05 03:03:36;;;;;;;5.07;2.10;;;;;;;27.78;39.86;98512.09;4471811;32;20097;-83
2022/07/05 03:06:02;;;;;;;4.75;1.87;;;;;;;27.90;39.65;98513.22;4472146;32;20443;-83
2022/07/05 03:08:27;;;;;;;7.20;2.20;;;;;;;27.96;39.55;98517.81;4486262;32;20458;-82
2022/07/05 03:10:53;;;;;;;5.70;2.00;;;;;;;27.94;39.61;98514.47;4486264;32;20096;-83
2022/07/05 03:13:18;;;;;;;4.37;1.98;;;;;;;28.00;39.48;98510.94;4486264;32;20125;-83
2022/07/05 03:15:44;;;;;;;6.15;2.15;;;;;;;28.09;39.41;98508.91;4486239;32;20424;-83
2022/07/05 03:18:09;;;;;;;5.40;2.00;;;;;;;27.93;39.74;98510.13;4486281;32;20517;-83
2022/07/05 03:20:35;;;;;;;5.35;2.10;;;;;;;28.02;39.50;98514.28;4486232;32;20122;-83
2022/07/05 03:23:01;;;;;;;6.50;2.00;;;;;;;28.04;39.58;98514.09;4472251;32;20356;-83
2022/07/05 03:25:27;;;;;;;4.85;2.10;;;;;;;28.03;39.62;98509.72;4486499;32;20145;-82
2022/07/05 03:27:52;;;;;;;5.05;2.00;;;;;;;28.10;39.33;98507.84;4471836;32;20096;-82
2022/07/05 03:30:17;;;;;;;6.03;2.10;;;;;;;28.18;39.25;98512.25;4485961;32;20084;-83
2022/07/05 03:32:43;;;;;;;5.78;2.30;;;;;;;28.20;39.12;98502.91;4486143;32;20093;-83
2022/07/05 03:35:08;;;;;;;5.03;2.00;;;;;;;28.16;39.11;98498.09;4485940;32;20165;-83
2022/07/05 03:37:34;;;;;;;7.60;2.12;;;;;;;28.26;38.96;98503.97;4486066;32;20089;-82
2022/07/05 03:39:59;;;;;;;6.00;2.00;;;;;;;28.18;39.22;98506.84;4471602;32;20103;-83
2022/07/05 03:42:25;;;;;;;5.18;1.95;;;;;;;28.27;38.99;98515.63;4471772;32;20456;-83
2022/07/05 03:44:50;;;;;;;4.18;1.90;;;;;;;28.17;38.99;98518.72;4485914;32;20092;-83
2022/07/05 03:47:16;;;;;;;5.07;2.08;;;;;;;28.29;38.57;98524.38;4485880;32;20080;-82
2022/07/05 03:49:41;;;;;;;5.18;1.92;;;;;;;28.12;38.81;98532.03;4485733;32;20099;-82
2022/07/05 03:52:06;;;;;;;5.22;2.00;;;;;;;27.89;39.48;98535.06;4471369;32;20140;-83
2022/07/05 03:54:32;;;;;;;3.83;1.77;;;;;;;27.91;39.67;98536.56;4485663;32;20115;-82
2022/07/05 03:56:57;;;;;;;5.12;2.00;;;;;;;27.87;39.95;98545.22;4485727;32;20092;-83
2022/07/05 03:59:22;;;;;;;8.48;2.20;;;;;;;28.06;39.63;98541.81;4485551;32;20102;-82
2022/07/05 04:01:48;;;;;;;6.87;2.17;;;;;;;27.77;40.14;98545.59;4485557;32;20080;-82
2022/07/05 04:04:13;;;;;;;11.40;2.15;;;;;;;27.59;40.98;98551.53;4485565;32;20118;-83
2022/07/05 04:06:39;;;;;;;5.45;1.98;;;;;;;27.46;41.52;98541.47;4485455;32;20092;-83
2022/07/05 04:09:04;;;;;;;4.53;2.03;;;;;;;27.40;41.78;98539.56;4485457;32;20088;-83
2022/07/05 04:11:30;;;;;;;7.60;2.22;;;;;;;27.53;41.67;98545.06;4471027;32;20100;-83
2022/07/05 04:13:56;;;;;;;5.85;2.58;;;;;;;27.34;42.33;98540.34;4485732;32;20139;-83
2022/07/05 04:16:22;;;;;;;7.35;2.15;;;;;;;27.56;41.99;98535.69;4473648;32;20100;-83
2022/07/05 04:18:47;;;;;;;6.15;2.10;;;;;;;27.35;42.66;98545.56;4487652;32;20171;-83
2022/07/05 04:21:12;;;;;;;5.95;1.90;;;;;;;27.20;43.12;98542.94;4460406;32;20169;-83
2022/07/05 04:23:38;;;;;;;6.05;2.25;;;;;;;27.33;42.86;98539.50;4487838;32;20437;-83
2022/07/05 04:26:03;;;;;;;6.07;2.00;;;;;;;27.49;42.62;98532.97;4487701;32;20097;-83
2022/07/05 04:28:31;;;;;;;8.43;2.37;;;;;;;27.56;42.52;98524.88;4487788;32;20168;-82
2022/07/05 04:30:57;;;;;;;6.12;1.98;;;;;;;27.49;42.67;98532.97;4487683;32;20105;-83
2022/07/05 04:33:23;;;;;;;4.03;1.83;;;;;;;27.76;42.05;98527.72;4473599;32;20112;-82
2022/07/05 04:35:48;;;;;;;5.78;2.28;;;;;;;27.85;41.55;98526.47;4487773;32;20373;-83
2022/07/05 04:38:14;;;;;;;7.80;1.92;;;;;;;27.84;41.19;98524.81;4473370;32;20102;-82
2022/07/05 04:40:40;;;;;;;5.60;1.90;;;;;;;27.73;40.94;98525.38;4487612;32;20084;-83
2022/07/05 04:43:06;;;;;;;6.35;2.05;;;;;;;27.84;40.77;98522.94;4473393;32;20415;-82
2022/07/05 04:45:32;;;;;;;6.18;2.05;;;;;;;27.92;40.48;98529.25;4487543;32;20088;-82
2022/07/05 04:47:58;;;;;;;4.43;1.95;;;;;;;28.00;40.05;98521.78;4473409;32;20149;-83
2022/07/05 04:50:23;;;;;;;19.10;2.80;;;;;;;27.92;39.85;98521.97;4487395;32;20153;-82
2022/07/05 04:52:49;;;;;;;5.15;2.10;;;;;;;28.26;39.17;98524.78;4473350;32;20150;-82
2022/07/05 04:55:14;;;;;;;7.40;1.90;;;;;;;28.19;38.81;98514.75;4487654;32;20080;-82
2022/07/05 04:57:41;;;;;;;5.93;1.87;;;;;;;28.46;38.27;98522.97;4487472;32;20113;-82
2022/07/05 05:00:11;;;;;;;6.72;2.15;;;;;;;28.45;38.32;98532.13;4487383;32;20262;-82
2022/07/05 05:02:37;;;;;;;6.93;1.98;;;;;;;28.46;38.47;98522.97;4488655;31;20514;-82
2022/07/05 05:05:03;;;;;;;22.20;2.87;;;;;;;28.10;39.57;98520.56;4503340;31;20084;-82
2022/07/05 05:07:29;;;;;;;6.20;2.00;;;;;;;28.13;39.70;98518.28;4488939;31;20080;-82
2022/07/05 05:09:54;;;;;;;6.75;2.10;;;;;;;27.89;40.41;98516.94;4503180;31;20124;-82
2022/07/05 05:12:20;;;;;;;4.68;1.80;;;;;;;27.85;40.82;98518.34;4488831;31;20144;-82
2022/07/05 05:14:45;;;;;;;8.07;2.10;;;;;;;27.89;40.96;98513.41;4503186;31;20143;-82
2022/07/05 05:17:10;;;;;;;5.70;1.70;;;;;;;27.96;40.88;98512.41;4503177;31;20100;-82
2022/07/05 05:19:36;;;;;;;7.20;1.87;;;;;;;27.84;41.32;98506.69;4503288;31;20496;-82
2022/07/05 05:22:01;;;;;;;19.37;2.22;;;;;;;28.06;40.95;98519.31;4489594;31;20142;-81
2022/07/05 05:24:27;;;;;;;14.68;2.60;;;;;;;27.85;41.44;98508.38;4473058;32;20144;-80
2022/07/05 05:26:52;;;;;;;7.12;2.20;;;;;;;27.69;41.74;98497.88;4487271;32;20153;-79
2022/07/05 05:29:19;;;;;;;8.80;2.20;;;;;;;27.95;41.24;98508.03;4487298;32;20145;-79
2022/07/05 05:31:44;;;;;;;6.90;2.15;;;;;;;27.71;41.47;98503.09;4487469;32;20150;-81
2022/07/05 05:34:09;;;;;;;11.50;2.25;;;;;;;28.07;40.50;98502.00;4472927;32;20142;-77
2022/07/05 05:36:35;;;;;;;11.65;2.62;;;;;;;27.93;40.74;98504.69;4487368;32;20129;-78
2022/07/05 05:39:00;;;;;;;11.75;2.42;;;;;;;27.66;40.77;98514.50;4486989;32;20093;-78
2022/07/05 05:41:26;;;;;;;8.05;2.17;;;;;;;28.02;39.97;98521.59;4487303;31;20115;-79
2022/07/05 05:43:51;;;;;;;8.95;2.08;;;;;;;27.96;39.76;98517.81;4486162;32;20125;-81
2022/07/05 05:46:17;;;;;;;10.10;2.20;;;;;;;28.11;39.32;98525.78;4487139;32;20080;-81
2022/07/05 05:48:42;;;;;;;9.98;2.40;;;;;;;28.29;38.92;98529.81;4485999;32;20112;-84
2022/07/05 05:51:08;;;;;;;6.62;1.90;;;;;;;28.16;38.79;98525.16;4484948;31;20092;-81
2022/07/05 05:53:33;;;;;;;8.13;2.40;;;;;;;28.43;38.40;98528.78;4471547;32;20135;-81
2022/07/05 05:55:59;;;;;;;6.80;1.90;;;;;;;28.52;38.37;98535.72;4484093;32;20108;-83
2022/07/05 05:58:24;;;;;;;5.07;1.83;;;;;;;28.45;38.42;98545.66;4484371;32;20118;-83
2022/07/05 06:00:53;;;;;;;5.00;1.85;;;;;;;28.46;37.91;98536.50;4484222;32;20076;-83
2022/07/05 06:03:20;;;;;;;11.80;2.30;;;;;;;28.51;37.98;98550.31;4472394;32;20107;-79
2022/07/05 06:05:45;;;;;;;4.55;1.87;;;;;;;28.81;37.51;98552.66;4472607;32;20156;-82
2022/07/05 06:08:11;;;;;;;7.28;1.90;;;;;;;28.51;38.37;98549.44;4487343;32;20092;-79
2022/07/05 06:10:37;;;;;;;5.55;1.80;;;;;;;28.50;38.83;98561.31;4472668;32;20361;-82
2022/07/05 06:13:05;;;;;;;7.32;1.80;;;;;;;28.46;39.05;98562.78;4472702;32;20108;-82
2022/07/05 06:15:31;;;;;;;4.55;1.80;;;;;;;28.59;38.90;98560.13;4486997;32;20477;-82
2022/07/05 06:17:57;;;;;;;6.78;2.10;;;;;;;28.50;39.19;98567.56;4472710;32;20101;-82
2022/07/05 06:20:26;;;;;;;9.93;2.15;;;;;;;28.22;39.69;98570.41;4472723;32;20160;-82
2022/07/05 06:22:53;;;;;;;23.27;2.90;;;;;;;28.23;39.69;98563.97;4486970;32;20084;-82
2022/07/05 06:25:19;;;;;;;10.88;2.28;;;;;;;28.22;39.79;98556.84;4472751;32;20636;-82
2022/07/05 06:27:46;;;;;;;7.07;1.80;;;;;;;28.04;39.89;98566.38;4472656;32;20124;-82
2022/07/05 06:30:14;;;;;;;;;;;;;;;27.42;40.97;98568.06;4472921;32;20168;-82
2022/07/05 06:32:39;;;;;;;7.63;2.03;;;;;;;27.62;41.01;98556.53;4486940;32;20331;-82
2022/07/05 06:35:05;;;;;;;5.47;1.83;;;;;;;27.70;40.79;98550.12;4486819;32;20096;-82
2022/07/05 06:37:44;;;;;;;8.98;2.17;;;;;;;27.66;40.69;98547.00;4486036;32;20104;-82
2022/07/05 06:40:11;;;;;;;8.32;1.83;;;;;;;27.67;40.72;98545.97;4486867;32;20122;-82
2022/07/05 06:42:37;;;;;;;5.03;1.75;;;;;;;27.60;40.88;98548.66;4486822;32;20084;-82
2022/07/05 06:45:03;;;;;;;5.60;2.08;;;;;;;27.82;40.26;98556.66;4459355;32;20133;-81
2022/07/05 06:47:29;;;;;;;5.47;1.70;;;;;;;27.91;40.11;98555.50;4486635;32;20096;-81
2022/07/05 06:49:54;;;;;;;6.05;1.48;;;;;;;28.07;39.72;98553.47;4486555;32;20441;-81
2022/07/05 06:52:19;;;;;;;7.10;2.17;;;;;;;28.13;39.63;98549.97;4472083;32;20414;-81
2022/07/05 06:54:45;;;;;;;4.78;1.65;;;;;;;28.23;39.50;98550.41;4486589;32;20100;-81
2022/07/05 06:57:10;;;;;;;5.68;1.60;;;;;;;28.43;39.24;98545.91;4472446;32;20127;-81
2022/07/05 06:59:36;;;;;;;6.45;1.90;;;;;;;28.56;38.77;98533.44;4486553;32;20105;-82
2022/07/05 07:02:02;;;;;;;7.55;1.83;;;;;;;28.42;39.43;98546.91;4486548;32;20097;-82
2022/07/05 07:04:27;;;;;;;4.65;1.40;;;;;;;29.01;38.41;98539.09;4486480;32;20333;-81
2022/07/05 07:06:53;;;;;;;7.50;1.50;;;;;;;29.07;38.18;98543.72;4486446;32;20364;-82
2022/07/05 07:09:18;;;;;;;9.07;1.75;;;;;;;29.17;37.38;98543.31;4486498;32;20119;-82
2022/07/05 07:11:48;;;;;;;10.85;1.70;;;;;;;29.08;37.47;98544.53;4486435;32;20093;-82
2022/07/05 07:14:13;;;;;;;7.28;1.80;;;;;;;29.13;37.40;98542.03;4472446;32;20111;-82
2022/07/05 07:16:39;;;;;;;9.10;1.83;;;;;;;29.00;37.43;98549.12;4486608;32;20176;-82
2022/07/05 07:19:05;;;;;;;5.28;1.67;;;;;;;28.82;37.80;98543.50;4486499;32;20386;-82
2022/07/05 07:21:30;;;;;;;7.25;2.15;;;;;;;28.91;37.94;98533.25;4486345;32;20159;-82
2022/07/05 07:23:55;;;;;;;14.98;2.10;;;;;;;29.39;37.18;98525.72;4472031;32;20115;-81
2022/07/05 07:26:21;;;;;;;4.57;1.80;;;;;;;29.43;36.94;98537.00;4486135;32;20097;-81
2022/07/05 07:28:46;;;;;;;3.62;1.30;;;;;;;28.82;37.83;98544.31;4486088;31;20122;-79
2022/07/05 07:31:12;;;;;;;10.00;1.90;;;;;;;29.09;37.50;98536.19;4494411;31;20141;-80
2022/07/05 07:33:37;;;;;;;5.20;1.62;;;;;;;29.13;37.46;98551.03;4484826;32;20337;-81
2022/07/05 07:36:03;;;;;;;5.15;1.50;;;;;;;29.40;37.26;98554.56;4485960;32;20100;-83
2022/07/05 07:38:28;;;;;;;6.87;1.73;;;;;;;29.50;37.32;98540.53;4485821;32;20093;-83
2022/07/05 07:40:54;;;;;;;12.05;1.90;;;;;;;29.76;37.00;98539.66;4486042;32;20472;-82
2022/07/05 07:43:19;;;;;;;2.95;1.48;;;;;;;29.66;37.04;98538.41;4485899;31;20372;-82
2022/07/05 07:45:44;;;;;;;6.45;1.45;;;;;;;29.68;36.78;98529.00;4492374;31;20118;-81
2022/07/05 07:48:10;;;;;;;4.28;1.40;;;;;;;29.32;37.50;98532.22;4501482;31;20093;-81
2022/07/05 07:50:35;;;;;;;4.35;1.50;;;;;;;29.66;37.22;98527.56;4488572;31;20081;-82
2022/07/05 07:53:01;;;;;;;5.70;1.62;;;;;;;29.81;37.07;98532.78;4504074;31;20072;-81
2022/07/05 07:55:26;;;;;;;4.25;1.80;;;;;;;29.73;37.19;98531.97;4489040;31;20175;-80
2022/07/05 07:57:52;;;;;;;5.53;1.60;;;;;;;30.04;36.75;98532.25;4489316;31;20119;-81
2022/07/05 08:00:18;;;;;;;7.25;2.10;;;;;;;30.11;36.98;98525.72;4503612;31;20080;-82
2022/07/05 08:02:43;;;;;;;4.35;1.60;;;;;;;30.24;36.46;98524.84;4503674;31;20385;-81
2022/07/05 08:05:09;;;;;;;6.10;1.70;;;;;;;30.03;36.72;98525.16;4503860;31;20123;-81
2022/07/05 08:07:35;;;;;;;6.90;1.75;;;;;;;30.18;36.40;98520.28;4503642;31;20119;-81
2022/07/05 08:10:01;;;;;;;14.70;2.53;;;;;;;29.79;36.99;98528.38;4489368;31;20084;-80
2022/07/05 08:12:27;;;;;;;5.68;1.70;;;;;;;29.83;37.31;98519.81;4503878;31;20103;-80
2022/07/05 08:14:52;;;;;;;9.85;1.70;;;;;;;29.75;37.49;98516.28;4489530;31;20382;-82
2022/07/05 08:17:20;;;;;;;4.95;1.80;;;;;;;29.68;37.78;98520.03;4503805;31;20532;-80
2022/07/05 08:22:30;;;;;;;8.00;1.83;;;;;;;29.44;38.30;98527.81;4503624;31;20099;-80
2022/07/05 08:24:56;;;;;;;4.85;1.87;;;;;;;29.66;37.96;98512.09;4503580;31;20092;-81
2022/07/05 08:27:21;;;;;;;5.65;1.70;;;;;;;29.79;37.87;98514.81;4503517;31;20088;-82
2022/07/05 08:29:47;;;;;;;5.57;2.10;;;;;;;29.82;37.70;98527.09;4503482;31;20079;-82
2022/07/05 08:32:12;;;;;;;5.47;1.67;;;;;;;29.86;37.56;98522.09;4488549;31;20183;-82
2022/07/05 08:34:38;;;;;;;14.50;2.90;;;;;;;29.68;38.09;98525.47;4503400;31;20356;-81
2022/07/05 08:37:04;;;;;;;4.57;1.80;;;;;;;29.68;38.24;98530.91;4489027;31;20100;-82
2022/07/05 08:39:29;;;;;;;5.50;1.70;;;;;;;29.31;38.42;98534.09;4503435;31;20185;-80
2022/07/05 08:41:57;;;;;;;6.47;1.70;;;;;;;29.35;38.36;98553.50;4488902;31;20080;-82
2022/07/05 08:44:23;;;;;;;4.68;1.80;;;;;;;28.89;39.08;98548.91;4488627;31;20127;-82
2022/07/05 08:46:53;;;;;;;5.70;1.80;;;;;;;29.36;38.54;98538.88;4503413;31;20096;-82
2022/07/05 08:49:27;;;;;;;5.47;1.80;;;;;;;29.29;38.76;98546.22;4489536;31;20091;-82
2022/07/05 08:51:53;;;;;;;7.65;2.10;;;;;;;29.26;38.56;98549.34;4503228;31;20119;-81
2022/07/05 08:54:19;;;;;;;7.05;2.10;;;;;;;29.25;38.40;98553.13;4503037;31;20104;-82
2022/07/05 08:56:45;;;;;;;10.38;2.05;;;;;;;29.21;38.43;98558.13;4489055;31;20092;-82
2022/07/05 08:59:10;;;;;;;6.53;1.67;;;;;;;29.48;37.61;98539.94;4503367;31;20375;-82
2022/07/05 09:01:36;;;;;;;6.00;1.80;;;;;;;29.47;37.81;98534.69;4502852;31;20136;-82
2022/07/05 09:04:04;;;;;;;10.38;2.03;;;;;;;29.37;38.15;98543.28;4488969;31;20482;-81
2022/07/05 09:06:32;;;;;;;7.12;1.70;;;;;;;29.43;38.41;98537.00;4484101;32;20163;-79
2022/07/05 09:08:59;;;;;;;10.70;1.90;;;;;;;29.71;37.86;98530.44;4486166;32;20089;-80
2022/07/05 09:11:29;;;;;;;5.40;1.85;;;;;;;29.45;38.83;98543.03;4486087;32;20411;-79
2022/07/05 09:13:54;;;;;;;8.18;1.90;;;;;;;29.56;38.61;98542.41;4487327;31;20141;-79
2022/07/05 09:16:20;;;;;;;12.68;2.35;;;;;;;29.21;39.32;98542.66;4488262;31;20499;-81
2022/07/05 09:18:50;;;;;;;7.43;2.00;;;;;;;29.35;39.48;98540.78;4503058;31;20099;-80
2022/07/05 09:21:24;;;;;;;8.13;2.15;;;;;;;29.56;39.75;98534.25;4503210;31;20095;-79
2022/07/05 09:23:56;;;;;;;6.78;2.00;;;;;;;29.95;39.37;98545.25;4488245;31;20088;-80
2022/07/05 09:26:36;;;;;;;5.37;1.60;;;;;;;29.78;39.49;98539.44;4503248;31;20096;-82
2022/07/05 09:29:04;;;;;;;7.25;1.77;;;;;;;29.68;39.42;98534.44;4496137;31;20105;-80
2022/07/05 09:31:32;;;;;;;12.18;2.60;;;;;;;29.34;39.46;98540.97;4472732;32;20093;-82
2022/07/05 09:34:11;;;;;;;6.30;1.70;;;;;;;29.16;39.54;98549.75;4488155;31;20112;-82
2022/07/05 09:36:55;;;;;;;10.13;2.00;;;;;;;29.00;40.13;98546.41;4500188;31;20100;-81
2022/07/05 09:39:29;;;;;;;5.82;1.70;;;;;;;28.89;40.27;98541.59;4490684;31;20584;-81
2022/07/05 09:42:22;;;;;;;5.90;1.65;;;;;;;28.63;41.01;98545.13;4495737;31;20148;-82
2022/07/05 09:44:50;;;;;;;7.25;1.85;;;;;;;28.70;41.20;98545.13;4475265;31;20096;-81
2022/07/05 09:47:18;;;;;;;7.07;1.70;;;;;;;28.21;42.77;98547.91;4498515;31;20096;-82
2022/07/05 09:49:50;;;;;;;6.50;2.10;;;;;;;28.19;43.22;98551.88;4494385;31;20114;-82
2022/07/05 09:52:29;;;;;;;6.10;1.95;;;;;;;28.14;43.46;98555.16;4491738;31;20096;-79
2022/07/05 09:55:05;;;;;;;6.78;1.90;;;;;;;27.92;44.11;98551.75;4499993;31;20104;-82
2022/07/05 09:57:31;;;;;;;6.85;2.28;;;;;;;27.73;44.65;98555.16;4478613;31;20108;-80
2022/07/05 10:00:10;;;;;;;8.77;2.37;;;;;;;27.39;45.47;98560.37;4494192;31;20100;-79
2022/07/05 10:02:40;;;;;;;11.02;2.42;;;;;;;27.02;46.93;98569.59;4502894;31;20151;-78
2022/07/05 10:05:13;;;;;;;62.90;6.07;;;;;;;26.79;47.58;98594.12;4502783;31;20104;-80
2022/07/05 10:07:48;;;;;;;6.22;2.05;;;;;;;26.86;47.54;98603.16;4475669;31;20598;-80
2022/07/05 10:10:18;;;;;;;10.05;2.42;;;;;;;26.33;49.10;98602.53;4502596;31;20387;-79
2022/07/05 10:12:45;;;;;;;11.52;2.60;;;;;;;26.13;50.09;98596.91;4487781;31;20632;-77
2022/07/05 10:15:14;;;;;;;12.32;2.92;;;;;;;26.13;51.30;98603.12;4488747;31;20183;-79
2022/07/05 10:17:42;;;;;;;6.28;2.33;;;;;;;25.98;53.11;98615.81;4503013;31;20088;-79
2022/07/05 10:20:11;;;;;;;;;;;;;;;25.83;54.07;98613.91;4488992;31;20114;-79
2022/07/05 10:22:37;;;;;;;9.55;3.20;;;;;;;25.87;55.80;98609.00;4488555;31;19983;-78
2022/07/05 10:25:03;;;;;;;8.32;2.87;;;;;;;25.78;56.26;98602.00;4503009;31;20153;-79
2022/07/05 10:27:29;;;;;;;7.70;2.90;;;;;;;25.57;57.22;98583.84;4503085;31;20352;-79
2022/07/05 10:29:56;;;;;;;8.60;2.87;;;;;;;25.02;58.69;98584.00;4502824;31;20107;-79
2022/07/05 10:32:22;;;;;;;8.45;2.90;;;;;;;25.13;59.14;98612.41;4502660;31;20111;-79
2022/07/05 10:34:51;;;;;;;7.87;2.70;;;;;;;24.74;60.20;98618.72;4502851;31;20092;-79
2022/07/05 10:37:16;;;;;;;8.15;2.70;;;;;;;24.85;59.07;98621.03;4488469;31;20130;-79
2022/07/05 10:39:42;;;;;;;7.28;2.22;;;;;;;24.67;59.31;98615.09;4502941;31;20116;-79
2022/07/05 10:42:08;;;;;;;6.00;2.17;;;;;;;24.51;59.66;98621.41;4488037;31;20137;-80
2022/07/05 10:44:34;;;;;;;7.37;2.28;;;;;;;24.35;60.34;98614.22;4500678;31;20572;-80
2022/07/05 10:47:12;;;;;;;6.97;2.22;;;;;;;24.48;58.98;98625.25;4499981;31;20166;-80
2022/07/05 10:49:39;;;;;;;5.68;2.00;;;;;;;24.44;58.46;98615.88;4488228;31;20114;-78
2022/07/05 10:52:05;;;;;;;5.37;2.15;;;;;;;24.31;59.07;98611.03;4487804;31;20092;-80
2022/07/05 10:54:31;;;;;;;6.00;2.10;;;;;;;24.19;58.92;98619.72;4488095;31;20452;-80
2022/07/05 10:57:20;;;;;;;5.03;1.90;;;;;;;24.02;59.66;98625.12;4502397;31;20100;-77
2022/07/05 11:00:17;;;;;;;8.93;2.17;;;;;;;24.37;58.58;98636.44;4478614;31;20088;-80
2022/07/05 11:02:42;;;;;;;6.47;2.20;;;;;;;24.28;58.71;98632.94;4470828;31;20085;-83
2022/07/05 11:05:08;;;;;;;8.88;2.42;;;;;;;24.48;58.95;98638.72;4472817;32;20100;-83
2022/07/05 11:07:58;;;;;;;6.90;2.30;;;;;;;24.25;59.91;98654.81;4492964;31;20124;-83
2022/07/05 11:10:24;;;;;;;9.27;2.42;;;;;;;24.76;57.32;98651.72;4499682;31;20134;-83
2022/07/05 11:12:50;;;;;;;8.05;2.10;;;;;;;24.74;57.90;98645.66;4500864;31;20435;-84
2022/07/05 11:15:16;;;;;;;10.20;2.28;;;;;;;24.76;57.43;98657.09;4487011;31;20171;-84
2022/07/05 11:17:42;;;;;;;3.73;1.70;;;;;;;24.68;57.32;98658.00;4474501;31;20179;-84
2022/07/05 11:20:08;;;;;;;4.90;1.77;;;;;;;24.69;57.04;98658.84;4474555;31;20100;-84
2022/07/05 11:22:35;;;;;;;5.43;1.90;;;;;;;24.70;56.46;98664.03;4502046;31;20106;-84
2022/07/05 11:25:01;;;;;;;5.63;1.97;;;;;;;24.55;57.05;98659.59;4504020;31;20111;-84
2022/07/05 11:27:27;;;;;;;4.90;2.10;;;;;;;24.72;57.22;98663.88;4489949;31;20137;-85
2022/07/05 11:29:54;;;;;;;6.40;2.03;;;;;;;24.88;57.61;98671.88;4476495;31;20151;-84
2022/07/05 11:32:24;;;;;;;5.10;1.98;;;;;;;24.42;57.44;98660.16;4489766;31;20096;-84
2022/07/05 11:34:53;;;;;;;9.05;2.37;;;;;;;24.29;58.36;98658.84;4489446;31;20104;-84
2022/07/05 11:37:24;;;;;;;7.37;2.15;;;;;;;24.46;58.34;98640.75;4489780;31;20497;-84